Terminal Aerodrome Forecast
Issued by NWS

Home | Current Version | Previous Version | Text Only | Print | Product List | Glossary On
Versions: 1 2 3 4 5 6 7 8 9 10 11 12 13 14 15 16 17 18 19 20 21 22 23 24 25
000
FTUS43 KMKX 242320
TAFUES
TAF
KUES 242320Z 2500/2524 19004KT P6SM SCT090 BKN150
     FM250400 22005KT P6SM BKN030
     FM250600 23005KT 5SM BR BKN015
     FM250800 26005KT 5SM BR BKN025
     FM251000 28006KT P6SM SCT025
     FM251300 29008KT P6SM SCT250
     FM251700 30012G20KT P6SM FEW250=

USA.gov is the U.S. government's official web portal to all federal, state and local government web resources and services.